Time;durP1;ratioP1;P1;durP2;ratioP2;P2;SDS_P1;SDS_P2;PMS_P1;PMS_P2;Temp;Humidity;BMP_temperature;BMP_pressure;BME280_temperature;BME280_humidity;BME280_pressure;Samples;Min_cycle;Max_cycle;Signal;HPM_P1;HPM_P2
2021/01/24 00:29:06;;;;;;;17.80;8.50;;;;;;;10.27;83.17;99255.00;5072417;27;1154666;-77
2021/01/24 00:31:58;;;;;;;19.17;8.52;;;;;;;10.26;82.98;99260.16;5088034;28;20064;-76
2021/01/24 00:34:25;;;;;;;25.90;12.35;;;;;;;10.18;83.32;99247.72;5088072;28;20024;-76
2021/01/24 00:37:01;;;;;;;16.08;8.77;;;;;;;10.12;83.82;99242.88;5087643;28;20131;-76
2021/01/24 00:39:37;;;;;;;16.25;5.63;;;;;;;10.05;84.08;99233.81;5088713;28;20473;-76
2021/01/24 00:42:03;;;;;;;17.40;5.00;;;;;;;9.99;84.28;99228.13;5089009;28;20469;-76
2021/01/24 00:44:40;;;;;;;16.80;5.05;;;;;;;9.96;83.78;99224.00;5088490;28;20113;-76
2021/01/24 00:47:25;;;;;;;16.38;6.18;;;;;;;10.18;83.17;99224.06;5087467;28;20040;-77
2021/01/24 00:50:06;;;;;;;12.90;4.20;;;;;;;10.07;84.18;99221.88;5087512;28;20113;-76
2021/01/24 00:53:04;;;;;;;16.27;3.72;;;;;;;10.08;83.88;99217.66;5088433;28;20089;-76
2021/01/24 00:55:32;;;;;;;17.60;4.70;;;;;;;9.95;84.40;99202.03;5087547;28;20036;-76
2021/01/24 00:58:00;;;;;;;11.63;5.10;;;;;;;9.82;84.24;99172.94;5089754;28;20102;-75
2021/01/24 01:00:32;;;;;;;14.18;4.57;;;;;;;10.08;84.36;99200.66;5088055;28;20029;-76
2021/01/24 01:06:27;;;;;;;19.70;7.03;;;;;;;9.90;85.14;99190.41;5088669;28;20135;-76
2021/01/24 01:09:23;;;;;;;18.52;8.02;;;;;;;9.80;84.94;99176.41;5087959;28;20099;-76
2021/01/24 01:11:52;;;;;;;18.08;7.65;;;;;;;10.08;83.18;99170.19;5086804;28;20035;-76
2021/01/24 01:14:18;;;;;;;17.92;7.47;;;;;;;9.88;84.41;99157.47;5086916;28;20106;-76
2021/01/24 01:17:20;;;;;;;19.55;6.75;;;;;;;9.92;84.42;99168.34;5087152;28;20029;-76
2021/01/24 01:19:58;;;;;;;16.30;5.95;;;;;;;10.01;83.95;99156.09;5086941;28;20146;-76
2021/01/24 01:22:27;;;;;;;15.00;6.50;;;;;;;9.92;84.26;99153.94;5086762;28;20505;-76
2021/01/24 01:25:06;;;;;;;14.40;7.18;;;;;;;9.77;84.91;99151.97;5087978;28;20025;-77
2021/01/24 01:27:32;;;;;;;15.52;4.88;;;;;;;10.07;82.08;99120.31;5086257;28;20517;-77
2021/01/24 01:30:20;;;;;;;11.00;4.32;;;;;;;10.28;81.37;99132.19;5073751;28;20039;-76
2021/01/24 01:33:09;;;;;;;11.40;2.75;;;;;;;10.38;81.08;99118.22;5073261;28;20032;-77
2021/01/24 01:35:57;;;;;;;7.88;3.10;;;;;;;10.40;80.28;99113.91;5074411;28;20594;-76
2021/01/24 01:38:35;;;;;;;8.90;3.38;;;;;;;10.13;80.19;99066.78;5073920;28;20028;-76
2021/01/24 01:41:02;;;;;;;11.35;2.90;;;;;;;10.22;80.22;99081.63;5072896;28;20027;-76
2021/01/24 01:43:27;;;;;;;6.93;2.47;;;;;;;10.23;79.80;99100.25;5074175;28;20052;-76
2021/01/24 01:46:22;;;;;;;14.48;2.83;;;;;;;10.32;79.50;99120.16;5073978;28;20505;-76
2021/01/24 01:49:24;;;;;;;6.75;2.70;;;;;;;10.31;80.18;99111.75;5072632;28;20459;-76
2021/01/24 01:51:53;;;;;;;6.70;2.40;;;;;;;10.38;79.71;99104.69;5072737;28;20032;-76
2021/01/24 01:54:24;;;;;;;11.13;2.58;;;;;;;10.28;79.70;99090.72;5074068;28;20028;-76
2021/01/24 01:57:18;;;;;;;11.05;2.67;;;;;;;10.44;80.26;99097.63;5073939;28;20028;-76
2021/01/24 01:59:46;;;;;;;9.48;2.72;;;;;;;10.43;79.83;99088.38;5072293;28;20143;-76
2021/01/24 02:02:57;;;;;;;8.25;2.88;;;;;;;10.40;80.13;99090.19;5072567;28;20090;-76
2021/01/24 02:06:02;;;;;;;13.77;2.90;;;;;;;10.29;81.06;99088.13;5034807;28;20062;-76
2021/01/24 02:08:51;;;;;;;13.13;2.60;;;;;;;10.24;81.32;99084.94;5073518;28;20509;-76
2021/01/24 02:14:50;;;;;;;11.88;3.47;;;;;;;9.85;83.07;99083.97;5073676;28;20040;-76
2021/01/24 02:17:56;;;;;;;10.55;3.65;;;;;;;9.82;83.30;99101.88;5073139;28;20032;-76
2021/01/24 02:20:34;;;;;;;8.38;3.38;;;;;;;9.69;84.22;99108.28;5073164;28;20039;-75
2021/01/24 02:23:14;;;;;;;7.22;3.33;;;;;;;9.54;84.11;99074.19;5077923;28;20111;-76
2021/01/24 02:26:04;;;;;;;20.15;4.57;;;;;;;9.60;85.01;99091.72;5073361;28;20021;-76
2021/01/24 02:29:07;;;;;;;16.02;4.95;;;;;;;9.60;85.16;99098.50;5073179;28;20120;-76
2021/01/24 02:31:38;;;;;;;;;;;;;;;9.48;85.53;99082.03;5046997;28;20056;-75
2021/01/24 02:34:18;;;;;;;13.25;3.95;;;;;;;9.66;85.60;99087.28;5071864;28;20392;-76
2021/01/24 02:36:53;;;;;;;13.35;5.03;;;;;;;9.48;86.41;99074.44;5071759;28;20029;-76
2021/01/24 02:39:19;;;;;;;12.93;4.10;;;;;;;9.41;87.13;99097.53;5071881;28;20788;-76
2021/01/24 02:41:50;;;;;;;10.27;3.92;;;;;;;9.38;86.71;99095.13;5069661;28;20523;-75
2021/01/24 02:44:24;;;;;;;11.43;3.70;;;;;;;9.34;87.44;99078.38;5071515;28;20029;-75
2021/01/24 02:46:49;;;;;;;9.77;3.75;;;;;;;9.39;87.74;99073.94;5071689;28;20078;-75
2021/01/24 02:49:35;;;;;;;10.55;3.70;;;;;;;9.23;87.45;99045.00;5071209;28;20025;-75
2021/01/24 02:52:24;;;;;;;10.57;3.60;;;;;;;9.54;87.69;99078.44;5071438;28;20028;-76
2021/01/24 02:54:58;;;;;;;10.60;3.47;;;;;;;9.59;87.64;99076.53;5072854;28;20031;-76
2021/01/24 03:00:45;;;;;;;13.70;3.45;;;;;;;9.69;87.49;99056.69;5073105;28;20052;-76
2021/01/24 03:03:11;;;;;;;11.38;4.40;;;;;;;9.55;87.80;99035.25;5072761;28;20028;-77
2021/01/24 03:05:39;;;;;;;8.98;4.18;;;;;;;9.66;87.54;99028.94;5071226;28;20029;-76
2021/01/24 03:08:06;;;;;;;11.52;4.28;;;;;;;9.70;87.39;99026.22;5072425;28;20032;-76
2021/01/24 03:10:32;;;;;;;12.52;3.63;;;;;;;9.86;87.14;99031.50;5071250;28;20039;-76
2021/01/24 03:13:35;;;;;;;14.00;4.53;;;;;;;9.79;87.31;99038.53;5071119;28;20032;-76
2021/01/24 03:16:08;;;;;;;13.25;4.65;;;;;;;9.77;87.84;99052.97;5072099;28;20523;-74
2021/01/24 03:18:54;;;;;;;13.48;4.60;;;;;;;9.75;87.51;99059.84;5071691;28;20490;-75
2021/01/24 03:21:23;;;;;;;13.85;4.07;;;;;;;9.64;87.69;99056.91;5072102;28;20084;-75
2021/01/24 03:24:14;;;;;;;14.07;4.90;;;;;;;9.69;87.65;99056.69;5070908;28;20529;-75
2021/01/24 03:27:02;;;;;;;11.50;4.50;;;;;;;9.60;88.06;99066.34;5070787;28;20036;-76
2021/01/24 03:29:37;;;;;;;12.70;4.03;;;;;;;9.58;87.99;99068.13;5070658;28;20480;-76
2021/01/24 03:32:02;;;;;;;12.43;4.68;;;;;;;9.51;87.99;99058.25;5071738;28;20028;-76
2021/01/24 03:35:02;;;;;;;13.90;3.92;;;;;;;9.83;87.45;99069.69;5070992;28;20056;-76
2021/01/24 03:37:28;;;;;;;14.65;4.85;;;;;;;9.47;88.42;99069.41;5071847;28;20537;-76
2021/01/24 03:40:08;;;;;;;14.18;4.82;;;;;;;9.58;88.09;99063.06;5070493;28;20025;-76
2021/01/24 03:42:58;;;;;;;15.40;6.60;;;;;;;9.61;88.65;99057.84;5070760;28;20155;-76
2021/01/24 03:45:24;;;;;;;21.23;8.18;;;;;;;9.41;89.39;99062.84;5072641;28;20028;-76
2021/01/24 03:47:52;;;;;;;15.55;7.90;;;;;;;9.49;88.63;99049.88;5077298;28;20167;-76
2021/01/24 03:50:24;;;;;;;20.75;8.85;;;;;;;9.45;88.96;99058.47;5071570;28;20093;-76
2021/01/24 03:52:55;;;;;;;18.17;7.40;;;;;;;9.59;87.77;99053.69;5071677;28;20028;-76
2021/01/24 03:55:45;;;;;;;19.60;7.80;;;;;;;9.68;88.26;99067.75;5070633;28;20043;-77
2021/01/24 03:58:15;;;;;;;15.23;7.82;;;;;;;9.21;89.18;99055.16;5071961;28;20032;-76
2021/01/24 04:00:59;;;;;;;16.48;6.95;;;;;;;9.50;89.44;99069.28;5070653;28;20417;-76
2021/01/24 04:03:26;;;;;;;11.98;6.80;;;;;;;9.47;89.28;99046.56;5070669;28;20513;-76
2021/01/24 04:06:04;;;;;;;14.95;7.70;;;;;;;9.42;89.08;99058.63;5070539;28;20458;-76
2021/01/24 04:08:35;;;;;;;21.77;8.13;;;;;;;9.49;89.17;99067.63;5063965;28;20020;-76
2021/01/24 04:11:05;;;;;;;17.17;7.67;;;;;;;9.41;88.94;99069.63;5053613;28;20664;-76
2021/01/24 04:13:31;;;;;;;20.42;8.95;;;;;;;9.38;89.18;99069.75;5070003;28;20337;-74
2021/01/24 04:16:11;;;;;;;21.80;9.70;;;;;;;9.33;89.24;99074.19;5071300;28;20503;-75
2021/01/24 04:18:38;;;;;;;23.60;9.88;;;;;;;9.30;89.48;99049.75;5068398;28;20059;-75
2021/01/24 04:21:09;;;;;;;25.95;10.32;;;;;;;9.34;88.72;99053.00;5069812;28;20027;-74
2021/01/24 04:23:35;;;;;;;22.27;12.02;;;;;;;9.44;88.48;99064.44;5069536;28;20024;-74
2021/01/24 04:26:03;;;;;;;30.48;15.20;;;;;;;9.23;89.81;99067.81;5067948;28;20405;-76
2021/01/24 04:28:28;;;;;;;30.30;15.70;;;;;;;9.08;90.65;99069.19;5068281;28;20056;-76
2021/01/24 04:31:08;;;;;;;29.13;15.48;;;;;;;9.17;90.01;99070.56;5068477;28;20469;-76
2021/01/24 04:33:57;;;;;;;31.20;13.90;;;;;;;9.14;89.96;99071.50;5068527;28;20024;-75
2021/01/24 04:36:22;;;;;;;20.52;8.10;;;;;;;9.36;89.63;99074.91;5069644;28;20032;-77
2021/01/24 04:38:59;;;;;;;15.77;7.25;;;;;;;9.32;89.58;99075.06;5069219;28;20035;-74
2021/01/24 04:42:00;;;;;;;14.65;6.22;;;;;;;9.43;89.84;99100.84;5068136;28;20753;-75
2021/01/24 04:44:29;;;;;;;14.15;6.85;;;;;;;9.32;89.59;99085.19;5068546;28;20039;-76
2021/01/24 04:46:56;;;;;;;16.98;6.90;;;;;;;9.03;89.81;99057.56;5068339;28;20025;-75
2021/01/24 04:49:33;;;;;;;13.52;6.47;;;;;;;9.17;90.02;99083.25;5069540;28;20029;-76
2021/01/24 04:52:00;;;;;;;15.90;6.00;;;;;;;9.28;90.35;99101.41;5069155;28;20124;-76
2021/01/24 04:54:27;;;;;;;12.55;6.22;;;;;;;9.19;90.79;99074.69;5069316;28;20165;-75
2021/01/24 04:57:33;;;;;;;11.20;5.43;;;;;;;9.35;89.88;99090.97;5068184;28;20035;-77
2021/01/24 05:00:06;;;;;;;13.82;6.10;;;;;;;9.15;89.79;99072.34;5069434;28;20033;-75
2021/01/24 05:02:53;;;;;;;14.88;7.25;;;;;;;9.24;90.92;99110.03;5068799;28;20090;-77
2021/01/24 05:05:22;;;;;;;15.48;7.30;;;;;;;9.37;90.12;99113.75;5073396;28;20111;-76
2021/01/24 05:08:00;;;;;;;18.88;8.30;;;;;;;9.42;89.98;99116.94;5074955;28;20035;-75
2021/01/24 05:11:09;;;;;;;18.33;7.88;;;;;;;9.37;89.96;99117.13;5076186;28;20429;-74
2021/01/24 05:13:46;;;;;;;28.48;14.55;;;;;;;9.17;90.27;99073.09;5072735;28;20562;-75
2021/01/24 05:16:44;;;;;;;54.17;34.00;;;;;;;9.27;89.89;99104.84;5069311;28;20036;-85
2021/01/24 05:19:25;;;;;;;39.00;26.10;;;;;;;9.19;90.17;99106.84;5072755;28;20408;-86
2021/01/24 05:22:06;;;;;;;34.03;19.20;;;;;;;9.06;90.60;99098.84;5073108;28;20028;-81
2021/01/24 05:24:34;;;;;;;29.55;15.82;;;;;;;9.01;90.52;99085.53;5074854;28;20087;-84
2021/01/24 05:27:25;;;;;;;27.30;16.80;;;;;;;9.23;90.53;99110.91;5074961;28;20405;-83
2021/01/24 05:29:58;;;;;;;30.07;18.13;;;;;;;8.80;90.69;99075.28;5073698;28;20045;-83
2021/01/24 05:32:25;;;;;;;66.18;42.13;;;;;;;8.86;91.36;99111.38;5073956;28;20021;-85
2021/01/24 05:38:32;;;;;;;26.73;14.95;;;;;;;9.07;90.47;99102.22;5074188;28;20097;-85
2021/01/24 05:41:11;;;;;;;45.15;27.88;;;;;;;9.11;90.25;99124.03;5072424;28;20115;-83
2021/01/24 05:43:44;;;;;;;43.03;27.42;;;;;;;9.06;91.03;99120.81;5073673;28;20029;-84
2021/01/24 05:46:32;;;;;;;52.40;32.22;;;;;;;8.87;90.95;99097.84;5071242;28;20641;-83
2021/01/24 05:48:59;;;;;;;35.45;19.95;;;;;;;8.84;91.18;99137.66;5071411;28;20028;-87
2021/01/24 05:51:26;;;;;;;29.17;16.77;;;;;;;8.65;91.82;99148.44;5073011;28;20119;-88
2021/01/24 05:53:59;;;;;;;27.23;17.77;;;;;;;8.63;91.37;99150.19;5072907;28;20071;-87
2021/01/24 05:56:27;;;;;;;22.10;13.50;;;;;;;8.63;91.35;99160.34;5073388;28;20043;-89
2021/01/24 05:59:16;;;;;;;18.92;11.30;;;;;;;8.48;91.82;99163.34;5074683;28;20563;-88
2021/01/24 06:02:13;;;;;;;12.00;7.63;;;;;;;8.50;92.09;99161.59;5073449;28;20040;-89
2021/01/24 06:04:41;;;;;;;14.57;8.77;;;;;;;8.45;92.83;99148.28;5073304;28;20094;-89
2021/01/24 06:10:28;;;;;;;16.35;9.88;;;;;;;8.39;93.22;99156.06;5074688;28;20055;-87
2021/01/24 06:13:14;;;;;;;29.50;17.77;;;;;;;8.52;92.94;99179.28;5072670;28;20119;-88
2021/01/24 06:19:04;;;;;;;129.50;64.90;;;;;;;8.61;93.41;99186.59;5073586;28;20040;-85
2021/01/24 06:21:56;;;;;;;120.67;62.77;;;;;;;8.59;93.60;99184.09;5072809;28;20546;-86
2021/01/24 06:27:57;;;;;;;82.03;49.25;;;;;;;8.78;93.48;99199.50;5073839;28;20064;-85
2021/01/24 06:31:01;;;;;;;67.40;46.90;;;;;;;8.75;94.95;99197.09;5072792;28;20531;-85
2021/01/24 06:33:26;;;;;;;29.73;19.65;;;;;;;8.72;94.66;99187.03;5086425;28;20044;-82
2021/01/24 06:39:27;;;;;;;26.17;15.80;;;;;;;8.90;93.95;99188.13;5074070;28;20046;-85
2021/01/24 06:41:54;;;;;;;70.32;46.20;;;;;;;9.04;93.88;99211.31;5072193;28;20058;-87
2021/01/24 06:45:09;;;;;;;72.60;49.30;;;;;;;9.13;93.83;99216.06;5073313;28;20025;-85
2021/01/24 06:47:58;;;;;;;69.13;46.72;;;;;;;9.08;93.70;99203.56;5071961;28;20064;-84
2021/01/24 06:50:58;;;;;;;66.18;43.60;;;;;;;9.13;93.57;99200.88;5069875;28;20482;-87
2021/01/24 06:53:52;;;;;;;34.60;23.30;;;;;;;9.06;93.68;99197.69;5072056;28;20039;-88
2021/01/24 06:56:53;;;;;;;41.58;25.25;;;;;;;8.96;94.41;99193.81;5073309;28;20121;-89
2021/01/24 06:59:45;;;;;;;65.15;35.30;;;;;;;9.05;94.40;99200.31;5071993;28;20028;-89
2021/01/24 07:05:32;;;;;;;118.13;62.65;;;;;;;9.00;94.45;99192.84;5073055;28;20075;-83
2021/01/24 07:07:58;;;;;;;97.53;55.65;;;;;;;9.04;94.18;99198.63;5072844;28;20095;-84
2021/01/24 07:10:47;;;;;;;91.32;50.33;;;;;;;9.33;92.88;99206.06;5071953;28;20677;-87
2021/01/24 07:13:39;;;;;;;94.05;58.53;;;;;;;9.22;94.04;99208.13;5072652;28;20028;-85
2021/01/24 07:16:28;;;;;;;101.95;64.40;;;;;;;9.47;92.78;99211.44;5068769;28;20674;-86
2021/01/24 07:18:59;;;;;;;102.20;65.63;;;;;;;12.44;79.89;99190.41;5072414;28;20508;-85
2021/01/24 07:21:39;;;;;;;133.15;86.10;;;;;;;11.19;83.29;99192.72;5071210;28;20032;-86
2021/01/24 07:24:05;;;;;;;96.18;60.97;;;;;;;13.24;77.44;99196.56;5072215;28;20037;-87
2021/01/24 07:26:33;;;;;;;73.05;46.92;;;;;;;13.99;71.45;99173.81;5070940;28;20040;-84
2021/01/24 07:32:22;;;;;;;30.73;20.47;;;;;;;12.31;78.87;99225.00;5072422;28;20520;-87
2021/01/24 07:34:52;;;;;;;34.05;24.25;;;;;;;11.46;82.24;99207.66;5071452;28;20017;-86
2021/01/24 07:37:42;;;;;;;42.60;28.73;;;;;;;11.14;83.45;99214.16;5072194;28;20124;-85
2021/01/24 07:40:45;;;;;;;44.05;30.95;;;;;;;11.05;84.21;99222.19;5071109;28;20031;-84
2021/01/24 07:43:29;;;;;;;23.25;16.10;;;;;;;10.85;84.37;99214.56;5072128;28;20032;-83
2021/01/24 07:45:57;;;;;;;14.00;9.00;;;;;;;10.95;84.13;99203.13;5070990;28;20036;-84
2021/01/24 07:48:59;;;;;;;17.80;11.13;;;;;;;10.97;84.82;99234.41;5070876;28;20051;-83
2021/01/24 07:51:43;;;;;;;13.68;8.88;;;;;;;10.73;85.03;99212.53;5070974;28;20460;-85
2021/01/24 07:54:15;;;;;;;12.25;7.05;;;;;;;11.06;83.73;99216.19;5072029;28;20036;-84
2021/01/24 07:56:42;;;;;;;10.40;5.28;;;;;;;11.22;82.60;99207.03;5085292;28;20023;-84
2021/01/24 07:59:19;;;;;;;10.32;6.18;;;;;;;11.57;81.79;99224.13;5073484;28;20025;-85
2021/01/24 08:02:07;;;;;;;10.93;6.25;;;;;;;11.72;81.75;99230.28;5072314;28;20131;-85
2021/01/24 08:05:04;;;;;;;20.85;13.48;;;;;;;11.94;79.15;99246.25;5070969;28;20025;-85
2021/01/24 08:10:51;;;;;;;29.55;16.05;;;;;;;12.08;77.20;99239.63;5072276;28;20182;-84
2021/01/24 08:14:09;;;;;;;27.02;15.07;;;;;;;11.90;78.35;99245.59;5071694;28;20020;-85
2021/01/24 08:17:06;;;;;;;26.67;15.30;;;;;;;11.94;75.68;99236.06;5070757;28;20066;-85
2021/01/24 08:19:59;;;;;;;32.85;20.42;;;;;;;11.71;77.60;99252.38;5070767;28;20119;-84
2021/01/24 08:23:15;;;;;;;33.55;20.08;;;;;;;12.15;75.20;99248.66;5070842;28;20036;-84
2021/01/24 08:29:34;;;;;;;41.65;24.13;;;;;;;11.54;76.48;99265.00;5071930;28;20056;-86
2021/01/24 08:32:04;;;;;;;41.35;24.67;;;;;;;11.86;74.93;99248.34;5071242;28;20024;-82
2021/01/24 08:34:58;;;;;;;43.00;24.95;;;;;;;12.42;74.97;99255.91;5071043;28;20386;-84
2021/01/24 08:37:25;;;;;;;34.47;22.35;;;;;;;11.73;75.31;99260.78;5071684;28;20446;-84
2021/01/24 08:39:54;;;;;;;72.10;45.13;;;;;;;11.65;76.49;99265.34;5073460;28;20025;-84
2021/01/24 08:42:23;;;;;;;59.35;44.00;;;;;;;11.49;76.37;99243.19;5074872;28;20028;-84
2021/01/24 08:48:15;;;;;;;45.65;29.67;;;;;;;11.71;77.10;99270.19;5075776;28;20058;-84
2021/01/24 08:54:16;;;;;;;53.27;32.80;;;;;;;11.91;74.74;99254.03;5076012;28;20608;-84
2021/01/24 08:56:43;;;;;;;55.63;37.08;;;;;;;11.75;75.58;99225.88;5074242;28;20429;-84
2021/01/24 09:00:02;;;;;;;51.00;32.83;;;;;;;11.55;76.87;99255.66;5074285;28;20036;-84
2021/01/24 09:02:28;;;;;;;49.38;29.90;;;;;;;11.94;74.94;99228.44;5019893;28;20032;-84
2021/01/24 09:05:45;;;;;;;42.63;27.42;;;;;;;11.59;76.01;99260.53;5074252;28;20024;-84
2021/01/24 09:08:41;;;;;;;41.88;27.27;;;;;;;11.83;77.02;99240.81;5073999;28;20031;-83
2021/01/24 09:11:27;;;;;;;38.30;24.63;;;;;;;11.79;76.18;99245.22;5073698;28;20178;-83
2021/01/24 09:14:04;;;;;;;48.58;28.15;;;;;;;12.18;76.17;99219.66;5074136;28;20116;-83
2021/01/24 09:16:29;;;;;;;46.25;28.83;;;;;;;12.17;75.70;99206.09;5074009;28;20032;-83
2021/01/24 09:19:15;;;;;;;48.50;31.13;;;;;;;12.39;76.41;99230.56;5073530;28;20036;-82
2021/01/24 09:25:07;;;;;;;45.57;26.00;;;;;;;12.40;74.62;99234.78;5075020;28;20060;-83
2021/01/24 09:27:34;;;;;;;48.28;31.17;;;;;;;12.33;76.45;99223.19;5071997;28;20481;-82
2021/01/24 09:29:59;;;;;;;42.05;27.00;;;;;;;12.33;76.37;99226.59;5073879;28;20493;-83
2021/01/24 09:32:30;;;;;;;34.70;23.98;;;;;;;12.51;75.27;99245.28;5073807;28;20071;-83
2021/01/24 09:34:55;;;;;;;42.80;28.00;;;;;;;12.52;74.28;99232.44;5074636;28;20110;-83
2021/01/24 09:37:37;;;;;;;31.38;19.95;;;;;;;13.07;74.04;99242.56;5073452;28;20040;-83
2021/01/24 09:40:11;;;;;;;;;;;;;;;12.94;74.33;99239.75;5073959;28;20028;-83
2021/01/24 09:42:39;;;;;;;33.58;21.67;;;;;;;12.99;73.08;99227.59;5073446;28;19919;-84
2021/01/24 09:48:26;;;;;;;27.20;17.27;;;;;;;13.38;71.62;99223.06;5074619;28;20047;-85
2021/01/24 09:50:51;;;;;;;27.95;17.73;;;;;;;13.29;71.91;99225.25;5072734;28;20017;-84
2021/01/24 09:57:10;;;;;;;30.23;18.80;;;;;;;13.68;70.29;99225.75;5074091;28;20082;-82
2021/01/24 09:59:41;;;;;;;23.27;14.82;;;;;;;13.68;70.63;99224.00;5073250;28;20150;-82
2021/01/24 10:02:30;;;;;;;26.08;18.90;;;;;;;14.02;69.16;99223.03;5073048;28;20031;-83
2021/01/24 10:05:41;;;;;;;29.38;19.55;;;;;;;13.97;70.34;99221.63;5073149;28;20064;-82
2021/01/24 10:08:26;;;;;;;44.05;22.25;;;;;;;14.08;68.64;99222.72;5072729;28;20097;-82
2021/01/24 10:14:13;;;;;;;39.90;21.33;;;;;;;14.02;69.46;99209.44;5074076;28;20074;-83
2021/01/24 10:17:08;;;;;;;47.90;24.85;;;;;;;14.54;67.92;99228.66;5072717;28;20028;-82
2021/01/24 10:20:26;;;;;;;88.38;34.70;;;;;;;14.42;67.54;99225.06;5073014;28;20028;-82
2021/01/24 10:23:21;;;;;;;31.42;17.65;;;;;;;14.21;68.13;99225.41;5073011;28;20040;-82
2021/01/24 10:25:57;;;;;;;66.82;33.38;;;;;;;14.18;67.32;99220.47;5073756;28;20116;-83
2021/01/24 10:28:23;;;;;;;44.38;24.52;;;;;;;14.59;66.94;99219.84;5071379;28;20044;-83
2021/01/24 10:31:42;;;;;;;33.20;20.15;;;;;;;14.53;65.99;99220.19;5072940;28;20044;-82
2021/01/24 10:34:14;;;;;;;52.88;29.23;;;;;;;14.74;65.43;99195.94;5072469;28;20036;-83
2021/01/24 10:36:39;;;;;;;23.33;13.93;;;;;;;14.62;64.96;99201.75;5072431;28;20021;-83
2021/01/24 10:42:26;;;;;;;34.92;21.75;;;;;;;14.79;65.75;99198.25;5081070;28;20108;-84
2021/01/24 10:44:58;;;;;;;32.42;20.88;;;;;;;14.98;65.39;99201.38;5092608;28;20029;-83
2021/01/24 10:50:44;;;;;;;19.98;13.80;;;;;;;15.35;60.04;99200.84;5073466;28;20039;-82
2021/01/24 10:53:44;;;;;;;16.25;11.13;;;;;;;15.64;60.46;99206.81;5072161;28;20021;-81
2021/01/24 10:56:30;;;;;;;14.18;10.43;;;;;;;15.04;62.58;99198.47;5071891;28;20070;-83
2021/01/24 10:58:59;;;;;;;18.23;12.38;;;;;;;15.20;61.98;99198.38;5071887;28;20127;-84
2021/01/24 11:01:30;;;;;;;57.00;35.47;;;;;;;15.32;61.09;99195.91;5071197;28;20497;-85
2021/01/24 11:07:17;;;;;;;21.98;13.55;;;;;;;15.06;60.42;99193.25;5073535;28;20170;-84
2021/01/24 11:13:12;;;;;;;18.73;12.07;;;;;;;15.42;59.14;99178.28;5072740;28;20090;-86
2021/01/24 11:18:59;;;;;;;15.02;9.85;;;;;;;15.75;57.21;99177.97;5072571;28;20421;-88
2021/01/24 11:24:46;;;;;;;16.00;9.63;;;;;;;16.17;55.09;99188.09;5072759;28;20102;-87
2021/01/24 11:27:35;;;;;;;16.38;10.27;;;;;;;16.14;53.80;99193.44;5071239;28;20033;-85
2021/01/24 11:30:05;;;;;;;10.63;7.22;;;;;;;16.11;53.49;99178.22;5071465;28;20052;-85
2021/01/24 11:32:39;;;;;;;13.07;8.57;;;;;;;16.71;52.05;99165.78;5072133;28;20537;-84
2021/01/24 11:35:34;;;;;;;12.88;8.13;;;;;;;16.54;51.58;99171.19;5072129;28;20028;-83
2021/01/24 11:38:03;;;;;;;13.45;8.27;;;;;;;16.46;51.92;99169.06;5071478;28;20036;-83
2021/01/24 11:40:52;;;;;;;11.10;6.18;;;;;;;16.73;51.20;99171.63;5071480;28;20100;-83
2021/01/24 11:43:38;;;;;;;7.38;4.25;;;;;;;16.88;45.15;99183.44;5071327;28;20417;-81
2021/01/24 11:49:25;;;;;;;9.02;5.20;;;;;;;16.67;42.99;99172.84;5070774;28;20063;-88
2021/01/24 11:51:54;;;;;;;5.10;3.55;;;;;;;16.50;42.13;99147.47;5070924;28;20089;-91
2021/01/24 11:54:26;;;;;;;7.25;4.82;;;;;;;16.75;41.30;99165.47;5071204;28;20016;-85
2021/01/24 11:59:54;;;;;;;;;;;;;;;17.02;40.79;99173.91;5071904;28;19923;-86
2021/01/24 12:02:28;;;;;;;11.27;5.93;;;;;;;16.81;42.55;99167.63;5070437;28;19916;-87
2021/01/24 12:08:06;;;;;;;9.43;6.00;;;;;;;16.91;41.96;99163.53;5080631;28;20055;-84
2021/01/24 12:10:45;;;;;;;12.48;6.95;;;;;;;16.55;41.97;99153.13;5079537;28;20047;-85
2021/01/24 12:13:13;;;;;;;13.05;8.73;;;;;;;16.96;42.20;99152.94;5070485;28;20028;-86
2021/01/24 12:16:24;;;;;;;8.82;4.97;;;;;;;17.14;41.08;99162.81;5070677;28;20029;-82
2021/01/24 12:19:01;;;;;;;10.35;6.10;;;;;;;16.91;41.84;99150.69;5069628;28;20034;-88
2021/01/24 12:21:45;;;;;;;8.48;5.28;;;;;;;17.28;41.87;99180.66;5070170;28;20043;-84
2021/01/24 12:24:37;;;;;;;8.50;4.68;;;;;;;16.97;42.15;99175.97;5070838;28;20033;-82
2021/01/24 12:27:14;;;;;;;9.18;5.20;;;;;;;17.24;40.66;99178.41;5071576;28;20461;-84
2021/01/24 12:29:43;;;;;;;3.53;2.60;;;;;;;17.23;39.96;99177.56;5070353;28;20121;-83
2021/01/24 12:32:09;;;;;;;6.78;3.60;;;;;;;17.06;39.24;99180.47;4716604;28;9999972;-82
2021/01/24 12:34:35;;;;;;;11.80;5.55;;;;;;;17.39;38.16;99166.28;5065852;28;20024;-85
2021/01/24 12:37:05;;;;;;;7.55;4.45;;;;;;;17.57;37.82;99168.41;5066308;28;20036;-88
2021/01/24 12:39:31;;;;;;;6.53;4.70;;;;;;;17.66;38.24;99160.06;5066026;28;20056;-86
2021/01/24 12:41:57;;;;;;;6.70;4.80;;;;;;;17.53;38.77;99164.41;5065770;28;20094;-82
2021/01/24 12:44:24;;;;;;;6.30;4.13;;;;;;;17.27;37.60;99163.59;5066427;28;20051;-86
2021/01/24 12:46:51;;;;;;;7.88;3.13;;;;;;;17.13;38.95;99168.06;5066114;28;20029;-85
2021/01/24 12:49:18;;;;;;;3.92;2.22;;;;;;;17.42;37.52;99179.72;5062580;28;20035;-82
2021/01/24 12:51:46;;;;;;;3.30;1.92;;;;;;;17.30;35.92;99160.00;5067059;28;20024;-84
2021/01/24 12:54:13;;;;;;;4.50;2.22;;;;;;;17.19;36.38;99171.00;5065412;28;20034;-85
2021/01/24 12:56:38;;;;;;;3.95;2.47;;;;;;;17.01;36.05;99172.28;5065014;28;20037;-90
2021/01/24 12:59:08;;;;;;;6.70;3.03;;;;;;;16.74;35.84;99168.94;5065510;28;20029;-87
2021/01/24 13:01:36;;;;;;;9.57;5.38;;;;;;;17.20;36.48;99193.22;5066597;28;20121;-84
2021/01/24 13:04:08;;;;;;;8.20;4.32;;;;;;;16.83;36.71;99176.06;5066515;28;20742;-83
2021/01/24 13:06:33;;;;;;;9.20;5.45;;;;;;;16.45;38.55;99162.31;5063969;28;20505;-87
2021/01/24 13:08:59;;;;;;;8.07;4.78;;;;;;;16.38;41.53;99191.88;5064641;28;20043;-83
2021/01/24 13:11:27;;;;;;;9.05;5.32;;;;;;;16.64;42.05;99190.22;5065727;28;20024;-81
2021/01/24 13:13:54;;;;;;;17.02;10.90;;;;;;;16.75;41.70;99180.88;5061977;28;20028;-83
2021/01/24 13:16:22;;;;;;;8.88;6.13;;;;;;;16.52;42.21;99196.13;5065422;28;20143;-87
2021/01/24 13:18:47;;;;;;;8.32;5.30;;;;;;;16.52;41.07;99194.38;5064090;28;20074;-87
2021/01/24 13:21:13;;;;;;;7.32;4.53;;;;;;;16.34;39.97;99180.16;5065027;28;20052;-84
2021/01/24 13:23:39;;;;;;;34.58;16.30;;;;;;;16.33;39.79;99166.50;5064481;28;20045;-82
2021/01/24 13:26:04;;;;;;;15.13;8.60;;;;;;;16.60;39.68;99186.19;5074032;28;20036;-82
2021/01/24 13:28:30;;;;;;;15.73;9.27;;;;;;;16.70;40.07;99171.84;5079089;28;20556;-81
2021/01/24 13:31:00;;;;;;;8.65;5.07;;;;;;;17.49;38.33;99177.59;5067708;28;20040;-85
2021/01/24 13:33:26;;;;;;;9.18;6.28;;;;;;;17.67;38.06;99171.19;5068226;28;20624;-85
2021/01/24 13:35:52;;;;;;;8.43;5.72;;;;;;;17.81;36.91;99189.00;5069072;28;20033;-83
2021/01/24 13:38:18;;;;;;;11.30;6.30;;;;;;;17.41;38.65;99192.69;5068735;28;20413;-80
2021/01/24 13:40:44;;;;;;;11.35;7.35;;;;;;;17.65;39.27;99193.59;5069116;28;20024;-80
2021/01/24 13:43:12;;;;;;;13.95;8.65;;;;;;;17.71;38.29;99196.53;5067603;28;20782;-85
2021/01/24 13:45:40;;;;;;;17.52;11.05;;;;;;;17.00;40.64;99200.59;5068753;28;20031;-80
2021/01/24 13:48:06;;;;;;;48.95;42.60;;;;;;;16.07;43.04;99190.41;5061253;28;20459;-81
2021/01/24 13:50:32;;;;;;;35.15;27.67;;;;;;;15.89;43.78;99191.56;5067756;28;20025;-76
2021/01/24 13:52:57;;;;;;;16.45;12.68;;;;;;;15.86;44.61;99178.13;5068577;28;20082;-81
2021/01/24 13:55:25;;;;;;;17.55;12.07;;;;;;;15.83;46.01;99183.41;5067529;28;20408;-84
2021/01/24 13:57:51;;;;;;;15.05;9.65;;;;;;;15.77;46.32;99191.53;5068762;28;20071;-82
2021/01/24 14:00:18;;;;;;;12.30;7.70;;;;;;;15.52;46.60;99172.53;5066933;28;20025;-83
2021/01/24 14:02:43;;;;;;;12.93;7.75;;;;;;;15.54;46.39;99188.63;5052374;28;20494;-84
2021/01/24 14:05:09;;;;;;;16.30;9.95;;;;;;;15.52;46.55;99175.09;5049423;28;20035;-81
2021/01/24 14:07:51;;;;;;;22.08;16.50;;;;;;;15.48;46.98;99189.00;5049273;28;20025;-82
2021/01/24 14:10:18;;;;;;;17.50;12.20;;;;;;;15.28;47.01;99184.22;5048230;28;20036;-82
2021/01/24 14:12:46;;;;;;;14.77;10.43;;;;;;;15.19;46.97;99171.94;5048323;28;20025;-82